Time;durP1;ratioP1;P1;durP2;ratioP2;P2;SDS_P1;SDS_P2;PMS_P1;PMS_P2;Temp;Humidity;BMP_temperature;BMP_pressure;BME280_temperature;BME280_humidity;BME280_pressure;Samples;Min_cycle;Max_cycle;Signal;HPM_P1;HPM_P2
2024/02/28 00:01:37;;;;;;;49.00;29.67;;;;;;;3.90;79.89;99043.78;5014880;28;20029;-86
2024/02/28 00:04:02;;;;;;;55.90;28.40;;;;;;;3.86;80.17;99028.53;5016860;28;20637;-87
2024/02/28 00:06:28;;;;;;;47.65;27.08;;;;;;;3.75;80.16;99011.47;5014564;28;20032;-86
2024/02/28 00:08:54;;;;;;;47.17;28.02;;;;;;;3.68;80.31;99013.28;5017012;28;20030;-86
2024/02/28 00:11:20;;;;;;;46.55;27.02;;;;;;;3.86;80.10;99026.72;4995362;28;20037;-86
2024/02/28 00:13:45;;;;;;;46.97;27.80;;;;;;;3.79;79.97;99031.16;5030706;28;20056;-85
2024/02/28 00:16:11;;;;;;;45.95;25.95;;;;;;;3.59;79.87;99014.47;5035497;28;20044;-87
2024/02/28 00:18:37;;;;;;;47.67;27.63;;;;;;;3.75;79.53;99036.03;5032157;28;20033;-87
2024/02/28 00:21:03;;;;;;;45.20;26.23;;;;;;;3.59;80.13;99022.38;5038471;28;20036;-86
2024/02/28 00:23:29;;;;;;;46.33;27.10;;;;;;;3.56;80.53;99023.59;5032787;28;20040;-86
2024/02/28 00:25:54;;;;;;;46.83;26.50;;;;;;;3.69;79.87;99036.81;4999185;28;20030;-87
2024/02/28 00:28:19;;;;;;;47.42;27.17;;;;;;;3.41;80.03;98987.81;5032006;28;20036;-87
2024/02/28 00:30:45;;;;;;;45.63;26.95;;;;;;;3.77;80.22;99049.03;4996490;28;20448;-87
2024/02/28 00:33:10;;;;;;;46.75;26.42;;;;;;;3.66;79.67;99044.34;5035606;28;20029;-85
2024/02/28 00:35:36;;;;;;;46.97;26.50;;;;;;;3.72;79.55;99054.09;5037249;28;20056;-87
2024/02/28 00:38:01;;;;;;;47.05;26.67;;;;;;;3.59;80.15;99033.75;5019545;28;20036;-87
2024/02/28 00:40:28;;;;;;;43.95;25.30;;;;;;;3.51;79.31;99020.75;5035479;28;20022;-87
2024/02/28 00:42:54;;;;;;;44.92;26.48;;;;;;;3.70;79.53;99072.78;5037856;28;20064;-87
2024/02/28 00:45:19;;;;;;;50.38;26.83;;;;;;;3.43;79.89;99022.75;5031928;28;21031;-87
2024/02/28 00:47:44;;;;;;;43.22;25.38;;;;;;;3.43;80.08;99038.59;5035007;28;20112;-87
2024/02/28 00:50:11;;;;;;;47.70;26.85;;;;;;;3.44;79.79;99053.41;5019362;28;20033;-87
2024/02/28 00:52:36;;;;;;;40.78;24.33;;;;;;;3.10;80.62;99033.19;5015287;28;20060;-87
2024/02/28 00:55:02;;;;;;;45.97;25.15;;;;;;;3.40;80.99;99050.34;5017688;28;20876;-86
2024/02/28 00:57:28;;;;;;;50.15;27.83;;;;;;;3.53;80.13;99058.31;5035232;28;20025;-87
2024/02/28 00:59:54;;;;;;;46.85;26.73;;;;;;;3.64;80.55;99080.66;5018222;28;20056;-87
2024/02/28 01:02:20;;;;;;;49.05;27.90;;;;;;;3.57;80.51;99064.00;5018669;28;20068;-86
2024/02/28 01:04:45;;;;;;;48.20;24.90;;;;;;;3.38;80.24;99035.72;5036018;28;20030;-87
2024/02/28 01:07:11;;;;;;;46.30;25.40;;;;;;;3.45;80.36;99058.47;5040080;28;20026;-86
2024/02/28 01:09:36;;;;;;;46.42;26.73;;;;;;;3.67;80.21;99082.88;5037025;28;20481;-86
2024/02/28 01:12:02;;;;;;;51.97;28.58;;;;;;;3.48;80.33;99041.44;5034416;28;20032;-87
2024/02/28 01:14:27;;;;;;;50.40;28.08;;;;;;;3.20;80.48;98998.53;5035793;28;20041;-86
2024/02/28 01:16:52;;;;;;;49.20;26.42;;;;;;;3.46;80.83;99060.09;5037903;28;20037;-87
2024/02/28 01:19:18;;;;;;;55.80;29.13;;;;;;;2.44;83.55;99054.88;5002775;28;20068;-86
2024/02/28 01:21:43;;;;;;;59.10;31.25;;;;;;;2.70;85.16;99049.78;5021333;28;20087;-87
2024/02/28 01:24:09;;;;;;;55.25;31.27;;;;;;;3.30;82.60;99054.38;5018215;28;20040;-87
2024/02/28 01:26:34;;;;;;;49.20;28.83;;;;;;;3.50;81.21;99074.53;5005505;28;20041;-87
2024/02/28 01:28:59;;;;;;;53.85;28.95;;;;;;;3.21;81.61;99042.34;5037772;28;20030;-87
2024/02/28 01:31:25;;;;;;;50.33;29.00;;;;;;;3.51;81.18;99085.91;5036137;28;20094;-87
2024/02/28 01:33:50;;;;;;;47.45;27.48;;;;;;;3.49;81.33;99077.38;5002826;28;20055;-87
2024/02/28 01:36:16;;;;;;;52.47;28.33;;;;;;;3.33;81.02;99059.22;5035381;28;20037;-87
2024/02/28 01:38:41;;;;;;;48.22;28.17;;;;;;;3.34;81.54;99069.56;5033741;28;20060;-87
2024/02/28 01:41:07;;;;;;;46.47;27.77;;;;;;;3.27;80.99;99073.22;5020240;28;20116;-87
2024/02/28 01:43:32;;;;;;;55.45;29.40;;;;;;;3.46;81.30;99089.13;5022631;28;20052;-87
2024/02/28 01:46:03;;;;;;;44.95;27.10;;;;;;;3.46;81.38;99085.66;5018667;28;20504;-86
2024/02/28 01:48:28;;;;;;;49.47;27.58;;;;;;;3.56;81.59;99086.13;5037176;28;20047;-86
2024/02/28 01:50:54;;;;;;;53.60;27.00;;;;;;;3.33;81.38;99086.44;5036422;28;20053;-87
2024/02/28 01:53:20;;;;;;;47.85;26.58;;;;;;;3.38;81.42;99099.84;5021118;28;20029;-87
2024/02/28 01:55:45;;;;;;;50.72;27.98;;;;;;;3.21;81.09;99071.38;5018386;28;20620;-87
2024/02/28 01:58:11;;;;;;;51.58;27.88;;;;;;;3.45;81.03;99090.13;5004278;28;20037;-87
2024/02/28 02:00:37;;;;;;;50.40;27.55;;;;;;;2.89;81.21;98994.53;5035173;28;20103;-87
2024/02/28 02:03:03;;;;;;;48.92;26.98;;;;;;;3.35;81.56;99081.78;5034814;28;20033;-86
2024/02/28 02:05:29;;;;;;;50.67;29.42;;;;;;;3.48;80.88;99078.38;5034855;28;20029;-87
2024/02/28 02:07:58;;;;;;;46.22;26.90;;;;;;;2.98;81.11;99003.09;5033992;28;22121;-87
2024/02/28 02:10:25;;;;;;;49.00;27.45;;;;;;;3.32;80.87;99042.59;5034505;28;20026;-86
2024/02/28 02:12:50;;;;;;;53.70;28.63;;;;;;;3.70;80.32;99088.59;5035831;28;20117;-87
2024/02/28 02:15:16;;;;;;;51.17;27.08;;;;;;;3.64;80.46;99084.13;5033520;28;20527;-87
2024/02/28 02:17:41;;;;;;;49.55;28.48;;;;;;;3.61;80.29;99083.69;5021482;28;20037;-87
2024/02/28 02:20:10;;;;;;;51.83;28.00;;;;;;;3.52;80.38;99077.78;5015744;28;20033;-86
2024/02/28 02:22:38;;;;;;;53.67;29.00;;;;;;;3.29;80.58;99042.19;5033812;28;20047;-87
2024/02/28 02:25:04;;;;;;;46.58;28.23;;;;;;;3.52;80.98;99075.13;5034672;28;20029;-87
2024/02/28 02:27:29;;;;;;;46.15;27.67;;;;;;;3.22;80.39;99025.50;5015286;28;20040;-87
2024/02/28 02:29:55;;;;;;;45.38;26.65;;;;;;;3.40;81.12;99081.19;4998994;28;20026;-87
2024/02/28 02:32:20;;;;;;;46.22;24.98;;;;;;;3.43;80.82;99078.97;5027886;28;20398;-87
2024/02/28 02:34:46;;;;;;;48.80;26.50;;;;;;;3.26;81.78;99082.13;5031115;28;20040;-87
2024/02/28 02:37:11;;;;;;;48.80;27.48;;;;;;;2.83;81.89;98999.78;5024868;28;20029;-85
2024/02/28 02:39:36;;;;;;;50.97;27.73;;;;;;;3.44;80.15;99062.13;5015791;28;20025;-87
2024/02/28 02:42:02;;;;;;;48.47;27.17;;;;;;;3.33;81.22;99064.50;5017433;28;20037;-87
2024/02/28 02:44:27;;;;;;;48.60;26.48;;;;;;;3.26;81.48;99082.13;5033038;28;20033;-86
2024/02/28 02:46:52;;;;;;;49.78;27.45;;;;;;;3.23;81.38;99077.25;5000989;28;20396;-86
2024/02/28 02:49:18;;;;;;;51.33;27.67;;;;;;;3.28;80.89;99059.00;5031791;28;20037;-86
2024/02/28 02:51:44;;;;;;;43.95;25.55;;;;;;;3.34;81.04;99081.97;5034063;28;20053;-87
2024/02/28 02:54:10;;;;;;;54.53;28.35;;;;;;;3.19;81.42;99087.38;5020356;28;20026;-86
2024/02/28 02:56:36;;;;;;;51.33;27.33;;;;;;;3.04;81.39;99047.94;5040723;28;20040;-87
2024/02/28 02:59:01;;;;;;;42.85;26.38;;;;;;;3.43;80.67;99078.97;5016643;28;20052;-87
2024/02/28 03:01:26;;;;;;;49.55;26.02;;;;;;;3.16;80.25;99047.41;5031834;28;20025;-87
2024/02/28 03:03:52;;;;;;;50.05;27.63;;;;;;;3.55;80.72;99068.66;5018587;28;20097;-87
2024/02/28 03:06:17;;;;;;;48.00;26.67;;;;;;;3.14;80.42;99021.22;5034256;28;20493;-87
2024/02/28 03:08:43;;;;;;;44.05;26.10;;;;;;;3.46;80.22;99075.13;4996046;28;20879;-87
2024/02/28 03:11:08;;;;;;;51.10;27.17;;;;;;;3.40;80.54;99066.19;5014103;28;20044;-86
2024/02/28 03:13:34;;;;;;;50.60;28.13;;;;;;;3.36;80.21;99067.59;5034877;28;20033;-87
2024/02/28 03:15:59;;;;;;;50.83;26.10;;;;;;;3.36;80.79;99074.69;5030408;28;20159;-87
2024/02/28 03:18:25;;;;;;;56.40;29.17;;;;;;;3.28;80.81;99067.72;5033677;28;20034;-87
2024/02/28 03:20:50;;;;;;;53.15;29.25;;;;;;;3.07;81.15;99043.28;5034171;28;20112;-87
2024/02/28 03:23:15;;;;;;;53.10;28.92;;;;;;;3.06;80.98;99049.59;5033112;28;20029;-86
2024/02/28 03:25:41;;;;;;;51.97;27.35;;;;;;;2.54;80.93;98976.31;5019331;28;20034;-86
2024/02/28 03:28:09;;;;;;;48.90;27.38;;;;;;;3.16;81.11;99069.31;5037765;28;20048;-87
2024/02/28 03:30:34;;;;;;;47.58;26.05;;;;;;;2.92;80.66;99035.53;5019769;28;20052;-87
2024/02/28 03:33:00;;;;;;;49.63;27.13;;;;;;;2.85;81.73;99046.03;4996729;28;20102;-87
2024/02/28 03:35:25;;;;;;;45.22;26.58;;;;;;;2.91;81.13;99041.78;5017917;28;20036;-87
2024/02/28 03:37:50;;;;;;;52.00;28.95;;;;;;;2.95;81.59;99066.75;5000046;28;20044;-87
2024/02/28 03:40:16;;;;;;;47.60;27.35;;;;;;;3.02;81.45;99059.69;5011672;28;20022;-87
2024/02/28 03:42:41;;;;;;;52.88;28.48;;;;;;;3.35;80.49;99086.22;5034820;28;20025;-86
2024/02/28 03:45:07;;;;;;;48.33;27.27;;;;;;;3.09;80.99;99075.56;5015359;28;20045;-87
2024/02/28 03:47:32;;;;;;;55.22;27.45;;;;;;;2.57;81.33;99012.81;5036261;28;20024;-87
2024/02/28 03:49:59;;;;;;;51.30;27.88;;;;;;;2.72;81.09;99048.59;5016095;28;20041;-87
2024/02/28 03:52:24;;;;;;;48.60;26.05;;;;;;;3.01;81.26;99108.19;5020528;28;20107;-86
2024/02/28 03:54:50;;;;;;;49.88;27.08;;;;;;;3.00;81.23;99101.25;5035195;28;20053;-87
2024/02/28 03:57:15;;;;;;;45.05;24.38;;;;;;;2.95;81.56;99103.66;5038536;28;20026;-86
2024/02/28 03:59:41;;;;;;;49.47;26.95;;;;;;;2.88;81.81;99105.47;5039102;28;20057;-87
2024/02/28 04:02:06;;;;;;;45.25;25.02;;;;;;;2.83;81.64;99111.31;5052910;28;20035;-87
2024/02/28 04:04:32;;;;;;;50.00;26.08;;;;;;;2.81;81.73;99096.69;5035662;28;20033;-86
2024/02/28 04:06:57;;;;;;;47.50;26.35;;;;;;;2.83;81.61;99116.56;5021356;28;20029;-87
2024/02/28 04:09:23;;;;;;;47.45;26.02;;;;;;;2.88;81.45;99114.16;5039453;28;20037;-86
2024/02/28 04:11:48;;;;;;;49.83;27.40;;;;;;;2.59;81.39;99072.22;5039943;28;20041;-87
2024/02/28 04:14:14;;;;;;;43.55;24.55;;;;;;;2.67;81.21;99081.78;5035462;28;20108;-87
2024/02/28 04:16:47;;;;;;;46.00;24.85;;;;;;;3.01;81.06;99121.34;5038201;28;20039;-86
2024/02/28 04:19:13;;;;;;;43.58;24.42;;;;;;;2.88;81.26;99119.44;5051581;28;20097;-87
2024/02/28 04:21:38;;;;;;;50.63;25.85;;;;;;;2.85;81.45;99104.00;5038186;28;20460;-87
2024/02/28 04:24:05;;;;;;;51.22;25.75;;;;;;;2.65;81.17;99054.81;5032861;28;20030;-86
2024/02/28 04:26:31;;;;;;;42.83;24.95;;;;;;;2.89;80.56;99136.06;5035881;28;20025;-85
2024/02/28 04:28:56;;;;;;;42.85;23.33;;;;;;;2.82;80.75;99107.03;5031707;28;20029;-86
2024/02/28 04:31:22;;;;;;;47.70;25.27;;;;;;;2.47;81.44;99068.47;5040118;28;20511;-86
2024/02/28 04:33:47;;;;;;;54.92;28.08;;;;;;;2.60;81.05;99126.53;5002484;28;20432;-87
2024/02/28 04:36:12;;;;;;;52.67;27.10;;;;;;;1.71;84.39;99097.31;5015896;28;20033;-86
2024/02/28 04:38:38;;;;;;;49.92;25.67;;;;;;;2.78;83.65;99153.22;5020469;28;20110;-86
2024/02/28 04:41:03;;;;;;;49.70;26.13;;;;;;;2.94;81.21;99134.50;5016342;28;20404;-86
2024/02/28 04:43:28;;;;;;;56.72;28.60;;;;;;;2.95;81.04;99141.38;5036454;28;20060;-86
2024/02/28 04:45:54;;;;;;;51.60;28.17;;;;;;;3.14;80.72;99142.53;5037691;28;20084;-86
2024/02/28 04:48:19;;;;;;;50.80;27.33;;;;;;;3.20;80.71;99170.75;5035679;28;20040;-87
2024/02/28 04:50:44;;;;;;;47.42;26.08;;;;;;;3.27;80.42;99176.09;5029842;28;20037;-86
2024/02/28 04:53:10;;;;;;;53.30;27.98;;;;;;;2.78;80.29;99103.16;5011877;28;20032;-86
2024/02/28 04:55:35;;;;;;;51.38;27.02;;;;;;;3.00;80.90;99146.09;5034347;28;20044;-85
2024/02/28 04:58:01;;;;;;;51.40;27.08;;;;;;;3.20;81.05;99185.75;5030552;28;21596;-86
2024/02/28 05:00:26;;;;;;;46.22;24.95;;;;;;;3.20;80.74;99183.94;5033042;28;20120;-87
2024/02/28 05:02:52;;;;;;;54.25;26.17;;;;;;;2.93;81.25;99158.41;5032307;28;20099;-86
2024/02/28 05:05:17;;;;;;;47.85;26.30;;;;;;;3.10;81.38;99183.50;5019210;28;20040;-86
2024/02/28 05:07:42;;;;;;;46.30;26.85;;;;;;;3.10;80.93;99169.47;5037180;28;20021;-87
2024/02/28 05:10:08;;;;;;;52.22;26.88;;;;;;;2.94;81.65;99176.69;5034209;28;20037;-85
2024/02/28 05:12:33;;;;;;;53.22;26.30;;;;;;;2.94;81.16;99166.13;5004304;28;20059;-87
2024/02/28 05:14:59;;;;;;;57.65;28.50;;;;;;;3.22;80.58;99189.03;5040568;28;20409;-86
2024/02/28 05:17:24;;;;;;;51.38;27.27;;;;;;;3.22;80.75;99189.03;5013489;28;20032;-87
2024/02/28 05:19:50;;;;;;;53.60;27.75;;;;;;;3.09;81.08;99194.22;5032069;28;20032;-86
2024/02/28 05:22:15;;;;;;;53.05;28.30;;;;;;;3.18;80.54;99196.50;5034213;28;20129;-86
2024/02/28 05:24:43;;;;;;;49.97;25.67;;;;;;;3.29;80.88;99195.97;5033696;28;20038;-86
2024/02/28 05:27:09;;;;;;;47.75;25.15;;;;;;;2.71;80.93;99130.47;5028687;28;20089;-85
2024/02/28 05:29:34;;;;;;;52.63;27.25;;;;;;;2.76;81.13;99134.16;5029921;28;20120;-85
2024/02/28 05:32:00;;;;;;;50.10;27.48;;;;;;;2.88;80.67;99198.50;5008359;28;20033;-85
2024/02/28 05:34:25;;;;;;;47.70;26.45;;;;;;;3.06;81.83;99198.03;5021666;28;20752;-85
2024/02/28 05:36:50;;;;;;;54.65;28.05;;;;;;;2.50;81.01;99102.34;5005514;28;20143;-86
2024/02/28 05:39:16;;;;;;;46.97;26.45;;;;;;;3.12;81.41;99193.84;5023259;28;20043;-85
2024/02/28 05:41:41;;;;;;;48.25;25.92;;;;;;;3.02;81.33;99199.44;4993897;28;20080;-85
2024/02/28 05:44:07;;;;;;;48.20;26.77;;;;;;;2.71;81.69;99176.06;5004960;28;20036;-85
2024/02/28 05:46:32;;;;;;;46.88;24.95;;;;;;;2.88;81.88;99187.16;5024605;28;20697;-85
2024/02/28 05:48:57;;;;;;;49.22;25.48;;;;;;;2.95;81.45;99201.19;5024631;28;20068;-85
2024/02/28 05:51:23;;;;;;;47.35;23.80;;;;;;;2.99;81.53;99216.44;5026842;28;20500;-85
2024/02/28 05:53:48;;;;;;;47.83;24.30;;;;;;;2.89;82.39;99223.88;5023760;28;20065;-85
2024/02/28 05:56:14;;;;;;;55.63;25.92;;;;;;;1.98;83.39;99199.25;5022023;28;20393;-85
2024/02/28 05:58:44;;;;;;;52.15;26.65;;;;;;;2.78;83.86;99228.84;5010663;28;20048;-85
2024/02/28 06:01:10;;;;;;;52.72;25.20;;;;;;;2.89;82.33;99220.41;5024972;28;20029;-87
2024/02/28 06:03:37;;;;;;;51.00;25.40;;;;;;;2.99;81.63;99216.44;5037706;28;21720;-87
2024/02/28 06:06:05;;;;;;;49.67;24.83;;;;;;;2.80;81.50;99229.47;5032871;28;20459;-87
2024/02/28 06:08:34;;;;;;;48.90;25.77;;;;;;;2.56;84.06;99220.13;5013188;28;20032;-86
2024/02/28 06:11:00;;;;;;;53.28;25.58;;;;;;;1.94;82.74;99138.28;5031529;28;20052;-86
2024/02/28 06:13:27;;;;;;;53.25;24.05;;;;;;;2.84;82.67;99226.25;5036072;28;20029;-87
2024/02/28 06:15:52;;;;;;;59.55;26.90;;;;;;;2.79;82.33;99241.84;5032630;28;20033;-88
2024/02/28 06:18:18;;;;;;;56.90;27.40;;;;;;;2.49;83.13;99182.34;5030026;28;20389;-87
2024/02/28 06:20:43;;;;;;;51.63;26.15;;;;;;;2.77;82.58;99212.22;5019015;28;20381;-86
2024/02/28 06:23:09;;;;;;;53.47;27.75;;;;;;;3.03;81.76;99253.81;5024187;28;20033;-87
2024/02/28 06:25:35;;;;;;;55.90;25.83;;;;;;;2.92;81.98;99235.88;5008239;28;20030;-87
2024/02/28 06:28:02;;;;;;;55.42;26.65;;;;;;;2.55;81.73;99194.78;5031312;28;20075;-87
2024/02/28 06:30:28;;;;;;;51.55;27.65;;;;;;;2.81;82.27;99239.00;5029180;28;20087;-86
2024/02/28 06:32:53;;;;;;;51.47;26.15;;;;;;;2.90;82.80;99269.50;5035810;28;20032;-87
2024/02/28 06:35:19;;;;;;;54.05;26.73;;;;;;;3.04;82.09;99268.59;5033274;28;20033;-86
2024/02/28 06:37:49;;;;;;;56.95;27.33;;;;;;;2.96;82.56;99282.75;5020858;28;20030;-86
2024/02/28 06:40:15;;;;;;;58.83;27.13;;;;;;;2.81;82.47;99233.75;5032617;28;20029;-87
2024/02/28 06:42:40;;;;;;;54.83;26.77;;;;;;;3.12;82.33;99275.56;5026742;28;20035;-86
2024/02/28 06:45:06;;;;;;;59.95;27.95;;;;;;;2.96;81.88;99256.38;5034587;28;20576;-87
2024/02/28 06:47:32;;;;;;;56.13;27.25;;;;;;;2.86;82.63;99255.09;5016848;28;20520;-87
2024/02/28 06:49:58;;;;;;;52.75;25.42;;;;;;;2.87;82.24;99277.78;5029154;28;20061;-87
2024/02/28 06:52:23;;;;;;;50.92;26.80;;;;;;;2.85;82.57;99270.06;5018371;28;20030;-87
2024/02/28 06:54:48;;;;;;;58.50;26.08;;;;;;;2.90;83.04;99291.41;5030395;28;20056;-86
2024/02/28 06:57:14;;;;;;;54.78;24.48;;;;;;;3.04;82.86;99287.88;5030726;28;20041;-87
2024/02/28 06:59:39;;;;;;;58.78;27.30;;;;;;;2.76;82.93;99250.13;5015632;28;20033;-87
2024/02/28 07:02:05;;;;;;;53.08;26.38;;;;;;;2.68;83.01;99292.41;5017065;28;20120;-87
2024/02/28 07:04:30;;;;;;;48.40;23.80;;;;;;;2.45;84.20;99249.59;5035676;28;20089;-87
2024/02/28 07:06:55;;;;;;;52.92;24.55;;;;;;;2.90;82.72;99287.97;5016198;28;20018;-86
2024/02/28 07:09:21;;;;;;;52.88;25.02;;;;;;;2.50;82.98;99247.22;5035563;28;20025;-87
2024/02/28 07:11:46;;;;;;;57.60;26.20;;;;;;;2.83;83.48;99280.00;5034826;28;20032;-87
2024/02/28 07:14:12;;;;;;;54.92;26.67;;;;;;;3.05;82.64;99304.53;5035313;28;20389;-86
2024/02/28 07:16:37;;;;;;;52.28;26.20;;;;;;;2.78;82.38;99266.56;5034413;28;20425;-86
2024/02/28 07:19:02;;;;;;;55.45;26.40;;;;;;;2.80;82.92;99282.16;5016422;28;20033;-87
2024/02/28 07:21:29;;;;;;;47.58;23.30;;;;;;;2.90;82.58;99299.31;5034553;28;20029;-87
2024/02/28 07:23:54;;;;;;;51.70;24.05;;;;;;;2.76;83.10;99305.47;5017403;28;20025;-87
2024/02/28 07:26:20;;;;;;;49.15;23.45;;;;;;;2.51;82.88;99233.03;5039350;28;20155;-86
2024/02/28 07:28:49;;;;;;;55.20;24.83;;;;;;;2.33;84.04;99310.84;5033893;28;20037;-86
2024/02/28 07:31:23;;;;;;;51.13;24.58;;;;;;;2.73;83.42;99302.41;5019197;28;20040;-87
2024/02/28 07:33:49;;;;;;;48.67;23.45;;;;;;;2.37;83.15;99223.38;5040508;28;20026;-87
2024/02/28 07:36:14;;;;;;;51.35;24.83;;;;;;;2.87;83.03;99322.59;5012338;28;20102;-87
2024/02/28 07:38:41;;;;;;;48.00;23.33;;;;;;;3.04;82.83;99306.34;5033795;28;20029;-87
2024/02/28 07:41:07;;;;;;;43.22;21.85;;;;;;;2.95;82.26;99304.84;5034972;28;20551;-87
2024/02/28 07:43:36;;;;;;;48.38;24.45;;;;;;;2.85;82.90;99320.16;5037364;28;20018;-87
2024/02/28 07:46:09;;;;;;;46.60;24.70;;;;;;;2.72;82.01;99266.50;5019329;28;20503;-87
2024/02/28 07:48:34;;;;;;;53.25;26.38;;;;;;;3.22;81.91;99315.63;5030517;28;20049;-87
2024/02/28 07:51:00;;;;;;;48.35;23.38;;;;;;;3.36;80.72;99325.28;5032701;28;20065;-86
2024/02/28 07:53:26;;;;;;;52.88;25.77;;;;;;;3.25;80.74;99325.81;5021022;28;20033;-87
2024/02/28 07:55:51;;;;;;;59.05;25.98;;;;;;;1.26;85.73;99243.00;5038670;28;20053;-86
2024/02/28 07:58:20;;;;;;;52.53;24.48;;;;;;;2.41;83.29;99229.06;5036919;28;20187;-88
2024/02/28 08:00:45;;;;;;;65.20;28.42;;;;;;;2.78;83.28;99331.63;5036603;28;20032;-87
2024/02/28 08:03:10;;;;;;;51.33;23.73;;;;;;;3.26;81.71;99330.06;5035415;28;20034;-87
2024/02/28 08:05:39;;;;;;;49.95;25.30;;;;;;;3.46;81.13;99325.75;5034149;28;20056;-87
2024/02/28 08:08:07;;;;;;;56.08;25.42;;;;;;;3.37;80.96;99337.47;5035045;28;20128;-86
2024/02/28 08:10:33;;;;;;;52.33;24.10;;;;;;;3.10;81.53;99315.34;5034701;28;20028;-87
2024/02/28 08:12:58;;;;;;;54.67;25.70;;;;;;;3.25;81.09;99328.44;5033619;28;20034;-87
2024/02/28 08:15:24;;;;;;;58.40;25.13;;;;;;;3.02;81.46;99266.16;5037161;28;20093;-86
2024/02/28 08:17:49;;;;;;;53.15;25.67;;;;;;;3.32;80.67;99295.03;5035133;28;20128;-87
2024/02/28 08:20:15;;;;;;;57.80;28.05;;;;;;;3.45;80.73;99324.94;5037519;28;20029;-87
2024/02/28 08:22:40;;;;;;;60.00;26.60;;;;;;;2.95;80.39;99236.28;5015698;28;20528;-87
2024/02/28 08:25:06;;;;;;;63.45;27.30;;;;;;;3.12;81.06;99260.59;5000937;28;20113;-87
2024/02/28 08:27:34;;;;;;;63.05;28.75;;;;;;;3.51;80.94;99331.28;5033986;28;20523;-87
2024/02/28 08:30:00;;;;;;;75.75;31.45;;;;;;;3.44;80.13;99298.75;5040825;28;20036;-87
2024/02/28 08:32:25;;;;;;;69.10;28.88;;;;;;;3.21;80.43;99259.41;5039512;28;20030;-87
2024/02/28 08:34:50;;;;;;;69.35;31.02;;;;;;;3.45;81.47;99318.88;5021606;28;20034;-87
2024/02/28 08:37:17;;;;;;;65.18;28.45;;;;;;;3.45;79.83;99282.72;5019986;28;20418;-87
2024/02/28 08:39:42;;;;;;;57.70;26.33;;;;;;;3.45;80.60;99308.31;5037348;28;20101;-87
2024/02/28 08:42:07;;;;;;;63.80;26.90;;;;;;;3.63;79.87;99308.63;5033081;28;20056;-86
2024/02/28 08:44:33;;;;;;;61.70;29.13;;;;;;;3.54;79.25;99315.06;5035563;28;20463;-87
2024/02/28 08:46:58;;;;;;;61.65;28.63;;;;;;;3.84;79.09;99326.25;5032555;28;20262;-86
2024/02/28 08:49:23;;;;;;;60.55;27.55;;;;;;;3.84;79.12;99327.06;5038554;28;20064;-87
2024/02/28 08:51:49;;;;;;;62.05;27.95;;;;;;;3.80;78.83;99347.75;5035604;28;20056;-86
2024/02/28 08:54:14;;;;;;;61.65;27.40;;;;;;;3.45;79.59;99292.50;5034748;28;20088;-87
2024/02/28 08:56:39;;;;;;;58.80;27.48;;;;;;;3.26;78.82;99253.56;5040439;28;20041;-87
2024/02/28 08:59:05;;;;;;;58.13;27.83;;;;;;;3.70;80.28;99355.19;5021458;28;20053;-87
2024/02/28 09:01:30;;;;;;;57.72;28.40;;;;;;;3.76;80.12;99340.41;5038625;28;20037;-86
2024/02/28 09:03:56;;;;;;;54.15;25.42;;;;;;;3.39;79.34;99277.41;5021994;28;20040;-86
2024/02/28 09:06:21;;;;;;;59.38;27.05;;;;;;;3.88;79.47;99357.34;5004483;28;20075;-87
2024/02/28 09:08:46;;;;;;;56.25;26.10;;;;;;;3.72;79.73;99329.41;5038041;28;20072;-87
2024/02/28 09:11:12;;;;;;;56.35;25.65;;;;;;;3.93;79.69;99357.59;5004170;28;20044;-87
2024/02/28 09:13:37;;;;;;;56.17;28.10;;;;;;;3.77;78.94;99324.38;5017823;28;20084;-87
2024/02/28 09:16:03;;;;;;;53.80;27.23;;;;;;;3.80;79.34;99339.00;5034272;28;20041;-87
2024/02/28 09:18:29;;;;;;;64.18;29.02;;;;;;;3.71;79.97;99342.81;5015450;28;20033;-86
2024/02/28 09:20:54;;;;;;;61.38;29.13;;;;;;;4.15;78.64;99360.97;5036283;28;20116;-87
2024/02/28 09:23:20;;;;;;;55.90;26.80;;;;;;;3.46;78.76;99271.19;5029825;28;20022;-86
2024/02/28 09:25:46;;;;;;;59.08;27.90;;;;;;;3.98;78.66;99341.97;5034680;28;20518;-87
2024/02/28 09:28:13;;;;;;;58.17;27.63;;;;;;;4.26;78.30;99363.88;5030781;28;20032;-86
2024/02/28 09:30:39;;;;;;;57.20;28.77;;;;;;;3.98;77.91;99290.97;5038020;28;20096;-87
2024/02/28 09:33:04;;;;;;;57.55;27.65;;;;;;;4.07;78.22;99298.53;5037689;28;20138;-87
2024/02/28 09:35:30;;;;;;;57.15;27.23;;;;;;;4.37;77.57;99326.31;5039443;28;20026;-87
2024/02/28 09:37:56;;;;;;;53.83;26.90;;;;;;;4.54;77.64;99359.31;5038831;28;20460;-86
2024/02/28 09:40:21;;;;;;;55.47;27.13;;;;;;;4.42;77.63;99360.91;5032097;28;20389;-87
2024/02/28 09:42:57;;;;;;;61.63;30.10;;;;;;;4.48;76.69;99340.78;5035611;28;20029;-87
2024/02/28 09:45:24;;;;;;;55.90;27.13;;;;;;;4.43;77.31;99345.88;5030870;28;20100;-87
2024/02/28 09:47:49;;;;;;;52.70;27.45;;;;;;;4.42;77.83;99366.19;5004731;28;20063;-86
2024/02/28 09:50:17;;;;;;;52.97;26.25;;;;;;;4.38;76.95;99320.03;5015713;28;20029;-87
2024/02/28 09:52:43;;;;;;;55.72;27.95;;;;;;;4.58;76.64;99351.84;5016296;28;20117;-86
2024/02/28 09:55:08;;;;;;;56.92;30.20;;;;;;;4.62;75.87;99373.38;5009748;28;20046;-87
2024/02/28 09:57:35;;;;;;;56.95;29.25;;;;;;;4.49;76.82;99372.34;5027215;28;20056;-87
2024/02/28 10:00:00;;;;;;;61.05;30.45;;;;;;;4.33;77.50;99375.28;5037860;28;20513;-87
2024/02/28 10:02:27;;;;;;;62.10;31.35;;;;;;;4.20;77.72;99325.03;5033891;28;20026;-86
2024/02/28 10:04:53;;;;;;;64.28;31.90;;;;;;;4.16;76.46;99304.47;5027017;28;20477;-86
2024/02/28 10:07:18;;;;;;;61.22;30.20;;;;;;;4.16;76.44;99307.13;5015658;28;20033;-87
2024/02/28 10:09:43;;;;;;;60.88;30.70;;;;;;;4.60;76.96;99393.91;5018007;28;20033;-87
2024/02/28 10:12:09;;;;;;;53.35;27.73;;;;;;;4.56;76.44;99367.06;5012975;28;20511;-86
2024/02/28 10:14:35;;;;;;;56.08;28.65;;;;;;;4.39;76.70;99382.44;5018936;28;20030;-86
2024/02/28 10:17:00;;;;;;;65.03;30.77;;;;;;;4.37;77.84;99389.75;5039087;28;20052;-86
2024/02/28 10:19:26;;;;;;;62.20;31.05;;;;;;;4.48;76.99;99340.78;5029941;28;20117;-87
2024/02/28 10:21:51;;;;;;;56.88;29.40;;;;;;;4.66;75.64;99379.91;5016991;28;20034;-87
2024/02/28 10:24:17;;;;;;;59.83;31.02;;;;;;;4.79;75.72;99391.34;5030729;28;20030;-87
2024/02/28 10:26:44;;;;;;;57.08;30.13;;;;;;;4.63;76.08;99393.53;5040350;28;20041;-86
2024/02/28 10:29:09;;;;;;;58.85;28.88;;;;;;;4.82;76.80;99398.09;5032358;28;20056;-86
2024/02/28 10:31:35;;;;;;;63.40;30.15;;;;;;;4.70;76.30;99400.47;5020298;28;20037;-87
2024/02/28 10:34:02;;;;;;;52.05;28.85;;;;;;;4.68;76.64;99393.75;5035364;28;20051;-86
2024/02/28 10:36:31;;;;;;;57.33;27.65;;;;;;;4.62;75.25;99362.81;5029059;28;20021;-86
2024/02/28 10:38:57;;;;;;;54.85;28.02;;;;;;;4.62;76.59;99402.47;5032937;28;20048;-87
2024/02/28 10:41:25;;;;;;;51.90;27.60;;;;;;;4.62;75.92;99376.03;5035662;28;20044;-87
2024/02/28 10:43:53;;;;;;;58.65;28.58;;;;;;;4.80;75.97;99387.72;5034716;28;20030;-87
2024/02/28 10:46:20;;;;;;;56.83;28.02;;;;;;;4.53;75.87;99360.34;5035988;28;20025;-87
2024/02/28 10:48:46;;;;;;;53.75;27.92;;;;;;;4.76;76.27;99375.88;5036043;28;20116;-86
2024/02/28 10:51:15;;;;;;;53.70;27.67;;;;;;;4.96;75.30;99397.91;5016633;28;20449;-86
2024/02/28 10:53:42;;;;;;;50.80;25.30;;;;;;;4.96;74.90;99403.22;5033919;28;20033;-86
2024/02/28 10:56:11;;;;;;;57.78;27.90;;;;;;;5.10;75.48;99406.72;5036101;28;20468;-87
2024/02/28 10:58:43;;;;;;;55.85;27.30;;;;;;;4.97;76.94;99414.63;5016622;28;20101;-86
2024/02/28 11:01:08;;;;;;;57.78;27.88;;;;;;;5.14;76.22;99422.00;5034159;28;20033;-86
2024/02/28 11:03:34;;;;;;;57.75;29.35;;;;;;;5.04;75.43;99410.16;5035769;28;20063;-87
2024/02/28 11:06:00;;;;;;;64.38;30.63;;;;;;;4.76;76.16;99412.91;5036499;28;20037;-86
2024/02/28 11:08:28;;;;;;;62.22;31.80;;;;;;;5.02;75.55;99406.91;5024947;28;20034;-87
2024/02/28 11:10:57;;;;;;;60.25;31.95;;;;;;;4.74;77.73;99409.63;5031652;28;20035;-86
2024/02/28 11:13:31;;;;;;;66.28;31.05;;;;;;;5.02;75.78;99385.75;5035830;28;20033;-87
2024/02/28 11:16:09;;;;;;;56.80;28.92;;;;;;;5.20;74.94;99386.78;5024074;28;20072;-87
2024/02/28 11:18:35;;;;;;;69.25;33.95;;;;;;;5.12;75.15;99392.28;5034629;28;20037;-87